To NAV CANADA Home Page Login to a new session Search on AWWS site Disclaimer Vers la page française équivalente Tips FAQ What's new on the site To the Forecasts and Observations / NOTAM section To "File a Flight Plan" website Publications and other links Update of the User's profile FIC Telephone Numbers My Weather Data Folder Route Weather Data Regional Weather Data Local Weather Data To the Forecasts and Observations / NOTAM section
Request Generated 01/24/2020 at 06:33:52 UTC . Weather information available at that time is displayed.


Go to a specific product

Save this request - Inactive

METAR/TAF

OTTAWA/GATINEAU/QC    

LWIS CYND 240600Z AUTO 00000KT M05/M07 A3036=
LWIS CYND 240500Z AUTO 02003KT M04/M06 A3035=
LWIS CYND 240400Z AUTO 35002KT M03/M05 A3035=

*** REMARK        : Forecast period has ended; this was the last TAF issued
*** REMARQUE : La période de prévision est échue; ceci était le dernier TAF qui a été émis
TAF CYND 232338Z 2400/2402 VRB03KT P6SM OVC130
RMK NXT FCST WILL BE ISSUED AT 241345Z=

OTTAWA/MACDONALD-CARTIER INTL/ON    

METAR CYOW 240600Z 00000KT 15SM SCT017 OVC200 M03/M06 A3035 RMK SC3CI5 SLP285=
METAR CYOW 240500Z 06006KT 15SM FEW130 FEW170 OVC200 M03/M06 A3034 RMK AC1AC1CI6 SLP281=
METAR CYOW 240400Z 04006KT 15SM FEW120 BKN170 OVC210 M04/M07 A3034 RMK AC1AC4CI3 SLP281=

TAF CYOW 240538Z 2406/2506 05005KT P6SM SCT120 BKN200
BECMG 2410/2412 06010KT
FM241600 08012KT P6SM BKN080 OVC160
FM250300 08008KT P6SM OVC120
RMK NXT FCST BY 240900Z=


GRAPHICAL FA CLOUDS & WEATHER FORECASTS
To the Product Selector
Graphical FA gfacn33      

Your time UTC time
Weather data provided by Environment Canada and NAV CANADA